createdAt,value
2018-03-22T00:00:32.928Z,33.93
2018-03-22T00:03:35.391Z,33.90
2018-03-22T00:06:37.961Z,33.40
2018-03-22T00:09:40.517Z,31.73
2018-03-22T00:12:43.097Z,30.60
2018-03-22T00:15:45.611Z,27.23
2018-03-22T00:18:48.101Z,32.93
2018-03-22T00:21:50.662Z,31.07
2018-03-22T00:24:53.234Z,30.07
2018-03-22T00:27:55.726Z,35.43
2018-03-22T00:30:58.242Z,27.57
2018-03-22T00:34:00.816Z,30.73
2018-03-22T00:37:03.379Z,28.10
2018-03-22T00:40:05.876Z,37.93
2018-03-22T00:43:08.401Z,34.20
2018-03-22T00:46:10.883Z,26.93
2018-03-22T00:49:13.331Z,41.30
2018-03-22T00:52:15.986Z,30.70
2018-03-22T00:55:18.552Z,34.53
2018-03-22T00:58:21.038Z,32.33
2018-03-22T01:01:23.568Z,34.50
2018-03-22T01:04:26.007Z,37.97
2018-03-22T01:07:28.477Z,32.73
2018-03-22T01:10:31.054Z,35.20
2018-03-22T01:13:33.523Z,42.73
2018-03-22T01:16:36.079Z,38.73
2018-03-22T01:19:38.560Z,37.33
2018-03-22T01:22:41.113Z,39.80
2018-03-22T01:25:43.567Z,39.33
2018-03-22T01:28:46.019Z,31.83
2018-03-22T01:31:48.522Z,40.17
2018-03-22T01:34:50.962Z,39.17
2018-03-22T01:37:53.511Z,34.03
2018-03-22T01:40:56.174Z,36.47
2018-03-22T01:43:58.839Z,38.67
2018-03-22T01:47:01.272Z,37.00
2018-03-22T01:50:03.734Z,35.53
2018-03-22T01:53:14.120Z,41.37
2018-03-22T01:56:16.674Z,36.03
2018-03-22T01:59:19.223Z,40.87
2018-03-22T02:02:21.664Z,37.80
2018-03-22T02:05:24.167Z,38.90
2018-03-22T02:08:26.608Z,37.13
2018-03-22T02:11:29.179Z,38.53
2018-03-22T02:14:31.835Z,36.80
2018-03-22T02:17:34.273Z,38.33
2018-03-22T02:20:36.732Z,38.40
2018-03-22T02:23:39.184Z,38.33
2018-03-22T02:26:41.690Z,41.63
2018-03-22T02:29:44.196Z,32.60
2018-03-22T02:32:46.718Z,40.00
2018-03-22T02:35:49.260Z,42.10
2018-03-22T02:38:51.795Z,42.53
2018-03-22T02:41:54.249Z,45.43
2018-03-22T02:44:56.720Z,44.73
2018-03-22T02:47:59.242Z,42.23
2018-03-22T02:51:01.879Z,45.03
2018-03-22T02:54:04.433Z,48.43
2018-03-22T02:57:06.864Z,49.00
2018-03-22T03:00:09.350Z,41.97
2018-03-22T03:03:11.777Z,46.80
2018-03-22T03:06:14.273Z,46.13
2018-03-22T03:09:16.740Z,50.30
2018-03-22T03:12:19.279Z,42.83
2018-03-22T03:15:21.865Z,43.27
2018-03-22T03:18:24.323Z,44.73
2018-03-22T03:21:26.884Z,43.73
2018-03-22T03:24:29.446Z,44.93
2018-03-22T03:27:31.884Z,40.70
2018-03-22T03:30:34.365Z,44.83
2018-03-22T03:33:36.929Z,41.97
2018-03-22T03:36:39.459Z,41.03
2018-03-22T03:39:41.925Z,45.37
2018-03-22T03:42:44.414Z,39.17
2018-03-22T03:45:46.875Z,45.90
2018-03-22T03:48:49.443Z,38.40
2018-03-22T03:51:51.896Z,42.33
2018-03-22T03:54:54.460Z,42.33
2018-03-22T03:57:57.024Z,44.00
2018-03-22T04:00:59.570Z,43.40
2018-03-22T04:04:02.053Z,41.63
2018-03-22T04:07:04.553Z,42.20
2018-03-22T04:10:07.070Z,46.10
2018-03-22T04:13:09.600Z,50.13
2018-03-22T04:16:12.087Z,46.70
2018-03-22T04:19:14.611Z,53.10
2018-03-22T04:22:17.093Z,54.50
2018-03-22T04:25:19.684Z,52.87
2018-03-22T04:28:22.111Z,49.20
2018-03-22T04:31:24.579Z,51.80
2018-03-22T04:34:27.034Z,53.67
2018-03-22T04:37:29.521Z,68.87
2018-03-22T04:40:31.984Z,53.63
2018-03-22T04:43:34.443Z,49.13
2018-03-22T04:46:37.009Z,59.47
2018-03-22T04:49:39.525Z,59.13
2018-03-22T04:52:42.039Z,59.47
2018-03-22T04:55:44.495Z,63.13
2018-03-22T04:58:47.051Z,65.93
2018-03-22T05:01:49.489Z,62.83
2018-03-22T05:04:51.980Z,56.80
2018-03-22T05:07:54.470Z,66.00
2018-03-22T05:10:57.076Z,62.90
2018-03-22T05:13:59.560Z,64.10
2018-03-22T05:17:02.078Z,63.63
2018-03-22T05:20:04.579Z,61.77
2018-03-22T05:23:07.032Z,62.57
2018-03-22T05:26:09.709Z,66.23
2018-03-22T05:29:12.154Z,68.60
2018-03-22T05:32:14.655Z,69.40
2018-03-22T05:35:17.192Z,57.53
2018-03-22T05:38:19.686Z,72.90
2018-03-22T05:41:22.214Z,68.33
2018-03-22T05:44:24.692Z,69.70
2018-03-22T05:47:27.176Z,71.47
2018-03-22T05:50:29.673Z,71.67
2018-03-22T05:53:32.107Z,80.10
2018-03-22T05:56:34.582Z,68.70
2018-03-22T05:59:38.001Z,72.97
2018-03-22T06:02:40.494Z,72.53
2018-03-22T06:05:43.022Z,77.53
2018-03-22T06:08:45.502Z,65.60
2018-03-22T06:11:48.045Z,67.87
2018-03-22T06:14:50.596Z,63.10
2018-03-22T06:17:53.066Z,64.33
2018-03-22T06:20:55.543Z,59.60
2018-03-22T06:23:57.960Z,61.67
2018-03-22T06:27:00.445Z,53.60
2018-03-22T06:30:02.918Z,58.10
2018-03-22T06:33:05.410Z,58.43
2018-03-22T06:36:07.900Z,50.40
2018-03-22T06:39:10.395Z,50.97
2018-03-22T06:42:12.874Z,50.87
2018-03-22T06:45:15.425Z,47.07
2018-03-22T06:48:17.877Z,50.43
2018-03-22T06:51:20.444Z,42.37
2018-03-22T06:54:22.941Z,54.33
2018-03-22T06:57:25.526Z,48.33
2018-03-22T07:00:28.042Z,50.83
2018-03-22T07:03:30.531Z,50.50
2018-03-22T07:06:33.057Z,47.87
2018-03-22T07:09:35.531Z,52.70
2018-03-22T07:12:38.076Z,49.93
2018-03-22T07:15:40.638Z,56.63
2018-03-22T07:18:43.138Z,54.37
2018-03-22T07:21:45.600Z,53.53
2018-03-22T07:24:48.120Z,55.23
2018-03-22T07:27:50.690Z,50.50
2018-03-22T07:30:53.151Z,46.07
2018-03-22T07:33:55.624Z,40.30
2018-03-22T07:36:58.117Z,55.67
2018-03-22T07:40:00.633Z,48.87
2018-03-22T07:43:08.924Z,53.17
2018-03-22T07:46:11.396Z,48.20
2018-03-22T07:49:13.952Z,48.40
2018-03-22T07:52:16.423Z,49.00
2018-03-22T07:55:18.891Z,46.83
2018-03-22T07:58:21.408Z,52.53
2018-03-22T08:01:23.864Z,49.53
2018-03-22T08:04:26.302Z,51.03
2018-03-22T08:07:28.787Z,46.83
2018-03-22T08:10:31.227Z,52.40
2018-03-22T08:13:33.693Z,48.47
2018-03-22T08:16:36.149Z,49.40
2018-03-22T08:19:38.658Z,51.70
2018-03-22T08:22:41.229Z,50.23
2018-03-22T08:25:43.787Z,48.80
2018-03-22T08:28:46.281Z,51.40
2018-03-22T08:31:48.721Z,55.67
2018-03-22T08:34:51.262Z,55.97
2018-03-22T08:37:53.727Z,48.53
2018-03-22T08:40:56.207Z,48.37
2018-03-22T08:43:58.748Z,50.77
2018-03-22T08:47:01.216Z,44.47
2018-03-22T08:50:03.669Z,50.80
2018-03-22T08:53:06.133Z,45.10
2018-03-22T08:56:08.697Z,42.47
2018-03-22T08:59:11.174Z,45.80
2018-03-22T09:02:13.659Z,50.13
2018-03-22T09:05:16.150Z,43.23
2018-03-22T09:08:18.606Z,41.57
2018-03-22T09:11:21.097Z,41.93
2018-03-22T09:14:23.620Z,38.00
2018-03-22T09:17:26.128Z,37.53
2018-03-22T09:20:28.593Z,36.50
2018-03-22T09:23:31.114Z,35.43
2018-03-22T09:26:39.237Z,34.37
2018-03-22T09:29:41.675Z,37.73
2018-03-22T09:32:44.165Z,32.30
2018-03-22T09:35:46.723Z,35.87
2018-03-22T09:38:49.184Z,29.97
2018-03-22T09:41:51.679Z,33.90
2018-03-22T09:44:54.221Z,30.30
2018-03-22T09:47:57.427Z,31.50
2018-03-22T09:50:59.908Z,29.10
2018-03-22T09:54:02.384Z,29.33
2018-03-22T09:57:04.885Z,33.63
2018-03-22T10:00:07.379Z,30.10
2018-03-22T10:03:09.888Z,27.63
2018-03-22T10:06:12.320Z,27.00
2018-03-22T10:09:14.909Z,28.53
2018-03-22T10:12:17.475Z,23.33
2018-03-22T10:15:19.909Z,23.50
2018-03-22T10:18:22.394Z,25.93
2018-03-22T10:21:24.957Z,27.03
2018-03-22T10:24:27.395Z,26.00
2018-03-22T10:27:29.878Z,23.83
2018-03-22T10:30:32.444Z,26.13
2018-03-22T10:33:34.908Z,24.73
2018-03-22T10:36:37.345Z,22.07
2018-03-22T10:39:39.829Z,21.60
2018-03-22T10:42:42.315Z,21.10
2018-03-22T10:45:44.826Z,19.67
2018-03-22T10:48:47.278Z,19.50
2018-03-22T10:51:49.763Z,20.70
2018-03-22T10:54:52.224Z,22.83
2018-03-22T10:57:54.686Z,18.80
2018-03-22T11:01:02.884Z,18.83
2018-03-22T11:04:08.185Z,16.47
2018-03-22T11:07:10.723Z,17.63
2018-03-22T11:10:13.188Z,19.47
2018-03-22T11:13:15.791Z,18.27
2018-03-22T11:16:18.234Z,19.93
2018-03-22T11:19:20.709Z,24.13
2018-03-22T11:22:23.230Z,22.67
2018-03-22T11:25:25.688Z,23.40
2018-03-22T11:28:28.168Z,22.50
2018-03-22T11:31:30.655Z,23.93
2018-03-22T11:34:33.130Z,25.10
2018-03-22T11:37:35.633Z,26.40
2018-03-22T11:40:38.151Z,26.80
2018-03-22T11:43:40.648Z,24.13
2018-03-22T11:46:43.170Z,25.47
2018-03-22T11:49:45.661Z,25.50
2018-03-22T11:52:48.189Z,28.07
2018-03-22T11:55:50.647Z,27.07
2018-03-22T11:58:53.119Z,27.47
2018-03-22T12:01:55.682Z,28.93
2018-03-22T12:04:58.184Z,27.27
2018-03-22T12:08:00.644Z,27.20
2018-03-22T12:11:03.183Z,28.13
2018-03-22T12:14:05.609Z,28.53
2018-03-22T12:17:08.089Z,28.33
2018-03-22T12:20:10.635Z,26.80
2018-03-22T12:23:13.106Z,31.67
2018-03-22T12:26:15.865Z,29.23
2018-03-22T12:29:18.295Z,29.70
2018-03-22T12:32:20.788Z,29.83
2018-03-22T12:35:23.454Z,27.97
2018-03-22T12:38:25.959Z,29.20
2018-03-22T12:41:28.507Z,26.10
2018-03-22T12:44:31.037Z,29.37
2018-03-22T12:47:33.663Z,28.20
2018-03-22T12:50:36.166Z,26.83
2018-03-22T12:53:38.650Z,27.83
2018-03-22T12:56:41.194Z,25.80
2018-03-22T12:59:43.717Z,25.93
2018-03-22T13:02:46.170Z,27.43
2018-03-22T13:05:48.657Z,25.13
2018-03-22T13:08:51.238Z,24.70
2018-03-22T13:11:53.722Z,28.83
2018-03-22T13:14:56.258Z,28.10
2018-03-22T13:17:58.825Z,25.93
2018-03-22T13:21:01.298Z,27.63
2018-03-22T13:24:03.801Z,26.80
2018-03-22T13:27:06.407Z,25.53
2018-03-22T13:30:08.967Z,25.10
2018-03-22T13:33:11.413Z,27.33
2018-03-22T13:36:13.915Z,25.20
2018-03-22T13:39:16.346Z,19.07
2018-03-22T13:42:18.857Z,19.63
2018-03-22T13:45:21.395Z,19.70
2018-03-22T13:48:23.863Z,22.73
2018-03-22T13:51:26.361Z,21.43
2018-03-22T13:54:28.861Z,24.07
2018-03-22T13:57:31.337Z,18.50
2018-03-22T14:00:34.697Z,21.03
2018-03-22T14:03:37.276Z,21.00
2018-03-22T14:06:39.827Z,24.07
2018-03-22T14:09:42.367Z,18.40
2018-03-22T14:12:44.907Z,19.93
2018-03-22T14:15:47.416Z,17.37
2018-03-22T14:18:50.041Z,19.17
2018-03-22T14:21:52.542Z,18.27
2018-03-22T14:24:55.218Z,13.97
2018-03-22T14:27:57.728Z,14.97
2018-03-22T14:31:00.244Z,14.50
2018-03-22T14:34:02.792Z,14.33
2018-03-22T14:37:05.267Z,15.40
2018-03-22T14:40:07.711Z,13.67
2018-03-22T14:43:10.685Z,9.87
2018-03-22T14:46:13.157Z,13.43
2018-03-22T14:49:15.705Z,14.30
2018-03-22T14:52:18.168Z,13.40
2018-03-22T14:55:20.638Z,12.00
2018-03-22T14:58:23.192Z,11.57
2018-03-22T15:01:25.769Z,13.50
2018-03-22T15:04:28.285Z,10.03
2018-03-22T15:07:30.873Z,9.50
2018-03-22T15:10:33.412Z,9.03
2018-03-22T15:13:35.899Z,8.67
2018-03-22T15:16:38.397Z,8.20
2018-03-22T15:19:40.932Z,9.00
2018-03-22T15:22:43.382Z,6.00
2018-03-22T15:25:45.859Z,4.40
2018-03-22T15:28:48.408Z,5.83
2018-03-22T15:31:50.937Z,5.30
2018-03-22T15:34:53.444Z,6.90
2018-03-22T15:37:55.972Z,7.17
2018-03-22T15:40:58.411Z,8.77
2018-03-22T15:44:00.859Z,11.40
2018-03-22T15:47:03.375Z,4.70
2018-03-22T15:50:05.939Z,3.97
2018-03-22T15:53:08.397Z,4.30
2018-03-22T15:56:10.968Z,4.10
2018-03-22T15:59:13.468Z,4.57
2018-03-22T16:02:15.934Z,3.60
2018-03-22T16:05:18.437Z,4.10
2018-03-22T16:08:20.906Z,4.90
2018-03-22T16:11:23.414Z,3.20
2018-03-22T16:14:25.883Z,2.80
2018-03-22T16:17:28.388Z,2.80
2018-03-22T16:20:30.901Z,4.13
2018-03-22T16:23:33.392Z,3.07
2018-03-22T16:26:35.974Z,3.80
2018-03-22T16:29:38.420Z,4.57
2018-03-22T16:32:40.937Z,3.80
2018-03-22T16:35:43.433Z,4.40
2018-03-22T16:38:47.102Z,3.97
2018-03-22T16:41:49.594Z,4.67
2018-03-22T16:44:52.045Z,3.90
2018-03-22T16:47:54.542Z,4.30
2018-03-22T16:50:57.020Z,4.30
2018-03-22T16:53:59.503Z,3.67
2018-03-22T16:57:02.019Z,5.13
2018-03-22T17:00:04.602Z,4.50
2018-03-22T17:03:07.055Z,3.80
2018-03-22T17:06:09.534Z,5.43
2018-03-22T17:09:12.010Z,4.10
2018-03-22T17:12:14.504Z,5.40
2018-03-22T17:15:17.538Z,10.73
2018-03-22T17:18:20.032Z,9.40
2018-03-22T17:21:22.493Z,6.43
2018-03-22T17:24:25.079Z,10.73
2018-03-22T17:27:27.641Z,8.90
2018-03-22T17:30:30.226Z,11.03
2018-03-22T17:33:32.787Z,7.57
2018-03-22T17:36:35.338Z,10.43
2018-03-22T17:39:37.995Z,8.97
2018-03-22T17:42:40.518Z,24.67
2018-03-22T17:45:43.120Z,18.70
2018-03-22T17:48:45.611Z,24.03
2018-03-22T17:51:48.145Z,11.90
2018-03-22T17:54:50.817Z,13.37
2018-03-22T17:57:53.309Z,20.20
2018-03-22T18:00:55.865Z,16.00
2018-03-22T18:03:58.407Z,18.87
2018-03-22T18:07:00.924Z,16.77
2018-03-22T18:10:03.526Z,18.90
2018-03-22T18:13:06.167Z,20.20
2018-03-22T18:16:08.964Z,12.43
2018-03-22T18:19:11.444Z,12.43
2018-03-22T18:22:13.952Z,15.30
2018-03-22T18:25:16.404Z,14.20
2018-03-22T18:28:19.010Z,21.47
2018-03-22T18:31:21.564Z,20.57
2018-03-22T18:34:24.124Z,21.57
2018-03-22T18:37:26.656Z,25.30
2018-03-22T18:40:29.275Z,28.07
2018-03-22T18:43:31.817Z,25.07
2018-03-22T18:46:34.390Z,17.07
2018-03-22T18:49:36.894Z,20.57
2018-03-22T18:52:39.351Z,15.90
2018-03-22T18:55:41.882Z,15.97
2018-03-22T18:58:44.383Z,18.87
2018-03-22T19:01:46.929Z,16.70
2018-03-22T19:04:49.446Z,19.37
2018-03-22T19:07:51.906Z,16.77
2018-03-22T19:10:54.482Z,15.97
2018-03-22T19:13:56.975Z,16.80
2018-03-22T19:16:59.470Z,16.03
2018-03-22T19:20:02.002Z,18.27
2018-03-22T19:23:04.560Z,16.10
2018-03-22T19:26:07.081Z,16.73
2018-03-22T19:29:09.601Z,13.67
2018-03-22T19:32:12.105Z,15.20
2018-03-22T19:35:14.670Z,16.63
2018-03-22T19:38:17.196Z,16.33
2018-03-22T19:41:19.687Z,18.67
2018-03-22T19:44:22.202Z,17.67
2018-03-22T19:47:24.721Z,13.97
2018-03-22T19:50:27.375Z,14.70
2018-03-22T19:53:29.872Z,15.70
2018-03-22T19:56:32.402Z,18.20
2018-03-22T19:59:34.993Z,19.70
2018-03-22T20:02:37.496Z,14.90
2018-03-22T20:05:40.158Z,19.23
2018-03-22T20:08:42.652Z,17.57
2018-03-22T20:11:45.198Z,18.70
2018-03-22T20:14:47.687Z,19.40
2018-03-22T20:17:50.228Z,22.17
2018-03-22T20:20:52.779Z,22.67
2018-03-22T20:23:55.297Z,19.00
2018-03-22T20:26:57.875Z,20.07
2018-03-22T20:30:00.385Z,20.47
2018-03-22T20:33:02.950Z,21.43
2018-03-22T20:36:05.573Z,30.77
2018-03-22T20:39:08.132Z,24.90
2018-03-22T20:42:12.042Z,24.57
2018-03-22T20:45:14.627Z,24.33
2018-03-22T20:48:17.163Z,25.53
2018-03-22T20:51:19.707Z,23.03
2018-03-22T20:54:22.253Z,22.53
2018-03-22T20:57:24.725Z,23.00
2018-03-22T21:00:27.276Z,26.80
2018-03-22T21:03:29.748Z,24.03
2018-03-22T21:06:32.469Z,23.23
2018-03-22T21:09:35.001Z,23.50
2018-03-22T21:12:37.539Z,19.57
2018-03-22T21:15:40.056Z,20.27
2018-03-22T21:18:42.607Z,21.47
2018-03-22T21:21:45.064Z,20.97
2018-03-22T21:24:47.747Z,21.60
2018-03-22T21:27:50.282Z,21.00
2018-03-22T21:30:52.762Z,17.57
2018-03-22T21:33:55.288Z,17.40
2018-03-22T21:36:57.773Z,19.60
2018-03-22T21:40:00.303Z,18.80
2018-03-22T21:43:02.813Z,18.80
2018-03-22T21:46:05.313Z,17.27
2018-03-22T21:49:07.809Z,15.80
2018-03-22T21:52:22.071Z,14.90
2018-03-22T21:55:24.634Z,16.10
2018-03-22T21:58:27.202Z,15.20
2018-03-22T22:01:29.702Z,15.03
2018-03-22T22:04:32.214Z,14.77
2018-03-22T22:07:34.729Z,12.50
2018-03-22T22:10:37.217Z,11.97
2018-03-22T22:13:39.694Z,12.20
2018-03-22T22:16:42.217Z,12.83
2018-03-22T22:19:44.864Z,10.73
2018-03-22T22:22:47.313Z,12.03
2018-03-22T22:25:49.798Z,9.47
2018-03-22T22:28:52.296Z,8.53
2018-03-22T22:31:54.776Z,7.20
2018-03-22T22:34:57.290Z,9.80
2018-03-22T22:37:59.758Z,10.00
2018-03-22T22:41:02.278Z,11.10
2018-03-22T22:44:04.792Z,9.93
2018-03-22T22:47:07.379Z,8.23
2018-03-22T22:50:09.862Z,6.90
2018-03-22T22:53:12.383Z,7.73
2018-03-22T22:56:14.933Z,6.27
2018-03-22T22:59:17.424Z,8.10
2018-03-22T23:02:19.866Z,9.97
2018-03-22T23:05:22.380Z,7.93
2018-03-22T23:08:24.860Z,6.97
2018-03-22T23:11:27.347Z,8.30
2018-03-22T23:14:29.813Z,8.70
2018-03-22T23:17:32.338Z,12.30
2018-03-22T23:20:34.863Z,16.87
2018-03-22T23:23:37.349Z,14.97
2018-03-22T23:26:39.829Z,12.53
2018-03-22T23:29:42.339Z,14.63
2018-03-22T23:32:44.825Z,13.23
2018-03-22T23:35:47.362Z,12.50
2018-03-22T23:38:49.870Z,13.80
2018-03-22T23:41:52.348Z,10.13
2018-03-22T23:44:54.886Z,9.90
2018-03-22T23:47:57.391Z,9.83
2018-03-22T23:50:59.875Z,11.00
2018-03-22T23:54:02.368Z,9.03
2018-03-22T23:57:04.807Z,11.17
